Time;durP1;ratioP1;P1;durP2;ratioP2;P2;SDS_P1;SDS_P2;PMS_P1;PMS_P2;Temp;Humidity;BMP_temperature;BMP_pressure;BME280_temperature;BME280_humidity;BME280_pressure;Samples;Min_cycle;Max_cycle;Signal;HPM_P1;HPM_P2
2022/01/27 00:01:07;;;;;;;1.17;1.15;;;4.60;99.90;;;;;;5135057;27;20403;-79
2022/01/27 00:03:45;;;;;;;1.25;1.15;;;4.60;99.90;;;;;;5099477;28;20039;-79
2022/01/27 00:06:11;;;;;;;7.07;2.00;;;4.60;99.90;;;;;;5099970;28;20039;-79
2022/01/27 00:08:45;;;;;;;0.80;0.80;;;4.60;99.90;;;;;;5116579;28;20066;-79
2022/01/27 00:11:13;;;;;;;1.35;1.25;;;4.60;99.90;;;;;;5134590;28;20495;-80
2022/01/27 00:13:45;;;;;;;0.70;0.70;;;4.60;99.90;;;;;;5134588;28;20040;-79
2022/01/27 00:16:35;;;;;;;0.70;0.70;;;4.60;99.90;;;;;;5134699;28;20051;-80
2022/01/27 00:19:00;;;;;;;3.22;3.03;;;4.60;99.90;;;;;;5116238;28;20505;-79
2022/01/27 00:21:29;;;;;;;1.05;0.70;;;4.60;99.90;;;;;;5134592;28;20043;-79
2022/01/27 00:23:55;;;;;;;0.95;0.90;;;4.60;99.90;;;;;;5098810;28;20040;-79
2022/01/27 00:26:21;;;;;;;1.33;1.23;;;4.60;99.90;;;;;;5116216;28;20368;-79
2022/01/27 00:28:48;;;;;;;1.50;1.15;;;4.60;99.90;;;;;;5134267;28;20049;-79
2022/01/27 00:31:16;;;;;;;1.20;1.15;;;4.60;99.90;;;;;;5116528;28;20375;-79
2022/01/27 00:33:43;;;;;;;5.97;1.65;;;4.60;99.90;;;;;;5134687;27;20080;-79
2022/01/27 00:36:08;;;;;;;1.17;1.08;;;4.50;99.90;;;;;;5138164;27;20550;-79
2022/01/27 00:38:34;;;;;;;3.20;3.03;;;4.60;99.90;;;;;;5120132;27;20075;-79
2022/01/27 00:41:00;;;;;;;0.60;0.60;;;4.60;99.90;;;;;;5120977;27;20039;-79
2022/01/27 00:43:26;;;;;;;2.22;2.05;;;4.60;99.90;;;;;;5138263;27;20031;-79
2022/01/27 00:45:51;;;;;;;0.80;0.80;;;4.60;99.90;;;;;;5138343;27;20044;-79
2022/01/27 00:48:17;;;;;;;0.85;0.85;;;4.70;99.90;;;;;;5119731;27;20039;-79
2022/01/27 00:50:47;;;;;;;0.80;0.80;;;4.70;99.90;;;;;;5138134;27;20047;-79
2022/01/27 00:53:29;;;;;;;10.32;4.32;;;4.70;99.90;;;;;;5119933;27;20043;-79
2022/01/27 00:55:57;;;;;;;0.70;0.70;;;4.60;99.90;;;;;;5138306;27;20038;-79
2022/01/27 00:58:44;;;;;;;1.10;1.10;;;4.70;99.90;;;;;;5138406;27;20432;-79
2022/01/27 01:01:12;;;;;;;4.47;4.10;;;4.70;99.90;;;;;;5137740;27;20057;-79
2022/01/27 01:03:42;;;;;;;0.85;0.80;;;4.70;99.90;;;;;;5138127;27;20043;-79
2022/01/27 01:17:10;;;;;;;1.60;1.50;;;4.70;99.90;;;;;;5137964;27;20502;-79
2022/01/27 01:29:25;;;;;;;2.80;2.58;;;4.70;99.90;;;;;;5138057;27;20062;-79
2022/01/27 01:30:46;;;;;;;2.45;2.25;;;4.70;99.90;;;;;;5137920;27;20491;-79
2022/01/27 01:33:19;;;;;;;5.07;2.35;;;4.70;99.90;;;;;;5138113;27;20058;-79
2022/01/27 01:35:49;;;;;;;0.95;0.95;;;4.70;99.90;;;;;;5137848;27;20122;-79
2022/01/27 01:38:18;;;;;;;0.95;0.85;;;4.70;99.90;;;;;;5119755;27;20043;-79
2022/01/27 01:40:46;;;;;;;0.80;0.80;;;4.70;99.90;;;;;;5119317;27;20047;-79
2022/01/27 01:43:12;;;;;;;0.80;0.80;;;4.70;99.90;;;;;;5119448;27;20496;-79
2022/01/27 01:45:38;;;;;;;1.77;1.67;;;4.70;99.90;;;;;;5119263;27;20047;-79
2022/01/27 01:48:04;;;;;;;0.80;0.80;;;4.80;99.90;;;;;;5137371;27;20050;-79
2022/01/27 01:50:30;;;;;;;5.73;4.37;;;4.70;99.90;;;;;;5137004;27;20054;-79
2022/01/27 01:52:56;;;;;;;1.67;1.58;;;4.70;99.90;;;;;;5119028;27;20045;-79
2022/01/27 01:55:22;;;;;;;1.55;1.05;;;4.80;99.90;;;;;;5137427;27;20129;-79
2022/01/27 01:57:50;;;;;;;0.77;0.77;;;4.70;99.90;;;;;;5137163;27;20462;-79
2022/01/27 02:00:17;;;;;;;2.80;1.52;;;4.80;99.90;;;;;;5119328;27;20100;-79
2022/01/27 02:02:43;;;;;;;0.70;0.70;;;4.70;99.90;;;;;;5102008;27;20051;-78
2022/01/27 02:05:08;;;;;;;0.95;0.95;;;4.80;99.90;;;;;;5119024;27;20444;-79
2022/01/27 02:07:52;;;;;;;0.80;0.80;;;4.80;99.90;;;;;;5136900;27;20065;-79
2022/01/27 02:18:18;;;;;;;1.88;1.77;;;4.80;99.90;;;;;;5118206;27;20047;-79
2022/01/27 02:20:43;;;;;;;2.50;2.30;;;4.70;99.90;;;;;;5136141;27;20043;-80
2022/01/27 02:23:10;;;;;;;0.82;0.82;;;4.80;99.90;;;;;;5136400;27;20039;-79
2022/01/27 02:25:36;;;;;;;;;;;4.90;99.90;;;;;;5137268;27;20053;-79
2022/01/27 02:28:02;;;;;;;0.60;0.60;;;4.80;99.90;;;;;;5117945;27;19927;-79
2022/01/27 02:30:28;;;;;;;0.82;0.82;;;4.80;99.90;;;;;;5136274;27;20043;-79
2022/01/27 02:32:54;;;;;;;1.90;1.80;;;4.80;99.90;;;;;;5118357;27;20111;-79
2022/01/27 02:35:24;;;;;;;1.60;1.50;;;4.80;99.90;;;;;;5136161;27;20046;-79
2022/01/27 02:37:50;;;;;;;4.43;4.03;;;4.80;99.90;;;;;;5136183;27;20043;-79
2022/01/27 02:40:25;;;;;;;0.60;0.60;;;4.80;99.90;;;;;;5136346;27;20050;-79
2022/01/27 02:42:51;;;;;;;0.60;0.60;;;4.80;99.90;;;;;;5136172;27;20035;-79
2022/01/27 02:45:39;;;;;;;0.60;0.60;;;4.70;99.90;;;;;;5118135;27;20062;-79
2022/01/27 02:48:04;;;;;;;0.60;0.60;;;4.70;99.90;;;;;;5118194;27;20088;-79
2022/01/27 02:50:30;;;;;;;0.60;0.60;;;4.80;99.90;;;;;;5136503;27;20138;-79
2022/01/27 02:52:56;;;;;;;1.05;0.95;;;4.80;99.90;;;;;;5117863;27;20050;-79
2022/01/27 02:55:21;;;;;;;1.83;1.73;;;4.80;99.90;;;;;;5136032;27;20047;-80
2022/01/27 02:57:47;;;;;;;2.28;2.15;;;4.80;99.90;;;;;;5117944;27;20046;-79
2022/01/27 03:00:13;;;;;;;1.08;1.08;;;4.80;99.90;;;;;;5135996;27;20078;-79
2022/01/27 03:02:38;;;;;;;1.25;0.80;;;4.80;99.90;;;;;;5117524;27;20478;-79
2022/01/27 03:05:05;;;;;;;0.80;0.80;;;4.80;99.90;;;;;;5135894;27;20092;-79
2022/01/27 03:07:30;;;;;;;1.15;1.15;;;4.80;99.90;;;;;;5135815;27;20042;-78
2022/01/27 03:09:56;;;;;;;1.45;1.40;;;4.80;99.90;;;;;;5117401;27;20084;-79
2022/01/27 03:12:25;;;;;;;1.35;1.25;;;4.90;99.90;;;;;;5136195;27;20039;-79
2022/01/27 03:14:51;;;;;;;0.60;0.60;;;4.80;99.90;;;;;;5135797;27;20088;-79
2022/01/27 03:17:17;;;;;;;1.10;0.80;;;4.80;99.90;;;;;;5117317;27;20046;-80
2022/01/27 03:19:42;;;;;;;1.30;1.20;;;4.90;99.90;;;;;;5135686;27;20046;-80
2022/01/27 03:22:09;;;;;;;2.40;1.15;;;4.80;99.90;;;;;;5135455;27;20042;-80
2022/01/27 03:24:35;;;;;;;2.75;1.63;;;4.90;99.90;;;;;;5117371;27;20138;-79
2022/01/27 03:27:01;;;;;;;1.77;1.67;;;4.90;99.90;;;;;;5135560;27;20126;-79
2022/01/27 03:29:27;;;;;;;3.08;1.98;;;4.90;99.90;;;;;;5100512;27;20563;-80
2022/01/27 03:31:54;;;;;;;1.00;0.90;;;4.90;99.90;;;;;;5135363;27;20062;-79
2022/01/27 03:34:20;;;;;;;0.75;0.75;;;4.90;99.90;;;;;;5116919;27;20047;-79
2022/01/27 03:36:46;;;;;;;0.98;0.98;;;4.90;99.90;;;;;;5117900;27;20039;-79
2022/01/27 03:39:16;;;;;;;1.95;1.85;;;4.90;99.90;;;;;;5117484;27;20142;-79
2022/01/27 03:41:49;;;;;;;3.80;3.08;;;4.90;99.90;;;;;;5135313;27;20047;-79
2022/01/27 03:44:14;;;;;;;1.02;1.02;;;4.90;99.90;;;;;;5135293;27;20089;-79
2022/01/27 03:46:40;;;;;;;0.75;0.75;;;4.90;99.90;;;;;;5116933;27;20039;-79
2022/01/27 03:49:06;;;;;;;1.60;1.50;;;5.00;99.90;;;;;;5116973;27;20413;-78
2022/01/27 03:51:31;;;;;;;0.85;0.85;;;5.00;99.90;;;;;;5117147;27;20074;-80
2022/01/27 03:53:57;;;;;;;1.50;1.40;;;5.00;99.90;;;;;;5117132;27;20467;-79
2022/01/27 03:56:22;;;;;;;0.88;0.88;;;5.00;99.90;;;;;;5134936;27;20523;-79
2022/01/27 03:58:48;;;;;;;0.60;0.60;;;5.00;99.90;;;;;;5134943;27;20042;-80
2022/01/27 04:01:13;;;;;;;1.85;1.75;;;5.00;99.90;;;;;;5135082;27;20126;-80
2022/01/27 04:03:39;;;;;;;3.40;2.20;;;5.00;99.90;;;;;;5134626;27;20099;-80
2022/01/27 04:06:07;;;;;;;0.98;0.90;;;5.00;99.90;;;;;;5135028;28;20073;-79
2022/01/27 04:08:38;;;;;;;4.05;3.35;;;4.90;99.90;;;;;;5101556;27;20250;-79
2022/01/27 04:11:05;;;;;;;0.60;0.60;;;4.90;99.90;;;;;;5141974;27;20046;-79
2022/01/27 04:13:31;;;;;;;;;;;4.90;99.90;;;;;;5142279;27;20039;-80
2022/01/27 04:15:56;;;;;;;0.75;0.75;;;4.80;99.90;;;;;;5123304;27;20009;-79
2022/01/27 04:18:22;;;;;;;2.58;2.38;;;4.80;99.90;;;;;;5123416;27;20042;-79
2022/01/27 04:20:51;;;;;;;0.80;0.80;;;4.90;99.90;;;;;;5106623;27;20050;-79
2022/01/27 04:23:18;;;;;;;1.00;0.98;;;4.90;99.90;;;;;;5123246;27;20617;-79
2022/01/27 04:25:44;;;;;;;2.17;1.98;;;4.80;99.90;;;;;;5141579;27;20050;-79
2022/01/27 04:28:13;;;;;;;1.35;1.25;;;4.80;99.90;;;;;;5123018;27;20104;-79
2022/01/27 04:30:40;;;;;;;0.70;0.70;;;4.90;99.90;;;;;;5122961;27;20100;-80
2022/01/27 04:33:07;;;;;;;1.45;1.35;;;4.90;99.90;;;;;;5141312;27;20035;-79
2022/01/27 04:35:37;;;;;;;2.83;2.70;;;4.90;99.90;;;;;;5141270;27;20047;-79
2022/01/27 04:43:56;;;;;;;5.82;5.35;;;4.90;99.90;;;;;;5122827;27;20050;-79
2022/01/27 04:48:24;;;;;;;0.50;0.50;;;4.90;99.90;;;;;;5140945;27;20053;-79
2022/01/27 04:50:52;;;;;;;0.70;0.70;;;4.90;99.90;;;;;;5123394;27;20436;-79
2022/01/27 04:53:28;;;;;;;2.67;2.35;;;5.00;99.90;;;;;;5141103;27;20088;-79
2022/01/27 04:55:56;;;;;;;0.57;0.57;;;5.00;99.90;;;;;;5122775;27;20043;-79
2022/01/27 04:58:29;;;;;;;7.93;5.15;;;5.00;99.90;;;;;;5141008;27;20050;-78
2022/01/27 05:00:57;;;;;;;1.77;1.67;;;5.00;99.90;;;;;;5141311;27;20054;-79
2022/01/27 05:03:34;;;;;;;1.40;1.30;;;5.00;99.90;;;;;;5105768;27;20031;-79
2022/01/27 05:05:59;;;;;;;1.75;1.15;;;5.00;99.90;;;;;;5140971;27;20046;-79
2022/01/27 05:08:25;;;;;;;2.15;1.98;;;5.00;99.90;;;;;;5123191;27;20098;-79
2022/01/27 05:11:02;;;;;;;3.75;2.40;;;5.00;99.90;;;;;;5106057;27;20490;-79
2022/01/27 05:13:34;;;;;;;0.60;0.60;;;5.10;99.90;;;;;;5141465;27;20091;-79
2022/01/27 05:16:00;;;;;;;0.80;0.80;;;5.10;99.90;;;;;;5141201;27;20277;-79
2022/01/27 05:18:26;;;;;;;4.80;3.33;;;5.10;99.90;;;;;;5122904;27;20122;-78
2022/01/27 05:20:51;;;;;;;1.08;0.98;;;5.10;99.90;;;;;;5119983;27;20132;-79
2022/01/27 05:23:17;;;;;;;3.35;3.10;;;5.10;99.90;;;;;;5119656;27;20038;-78
2022/01/27 05:25:43;;;;;;;0.70;0.70;;;5.10;99.90;;;;;;5138088;27;20471;-79
2022/01/27 05:28:08;;;;;;;0.70;0.70;;;5.10;99.90;;;;;;5119628;27;20136;-79
2022/01/27 05:30:35;;;;;;;1.35;1.25;;;5.10;99.90;;;;;;5137536;27;20039;-79
2022/01/27 05:33:00;;;;;;;0.60;0.60;;;5.20;99.90;;;;;;5119459;27;20043;-79
2022/01/27 05:35:26;;;;;;;2.35;2.20;;;5.20;99.90;;;;;;5119490;27;20054;-79
2022/01/27 05:37:52;;;;;;;0.60;0.60;;;5.20;99.90;;;;;;5137790;27;20092;-79
2022/01/27 05:40:18;;;;;;;0.90;0.90;;;5.20;99.90;;;;;;5137511;27;20039;-79
2022/01/27 05:42:43;;;;;;;1.45;1.35;;;5.10;99.90;;;;;;5102660;27;20100;-79
2022/01/27 05:45:09;;;;;;;0.63;0.63;;;5.10;99.90;;;;;;5137440;27;20103;-79
2022/01/27 05:47:35;;;;;;;0.60;0.60;;;5.20;99.90;;;;;;5119113;27;20459;-79
2022/01/27 05:50:01;;;;;;;1.35;1.25;;;5.20;99.90;;;;;;5118850;27;20552;-78
2022/01/27 05:52:26;;;;;;;0.80;0.80;;;5.20;99.90;;;;;;5137475;27;20043;-79
2022/01/27 05:54:52;;;;;;;0.65;0.65;;;5.10;99.90;;;;;;5137768;27;20047;-78
2022/01/27 05:57:17;;;;;;;0.80;0.80;;;5.20;99.90;;;;;;5137327;27;20047;-80
2022/01/27 05:59:43;;;;;;;0.60;0.60;;;5.20;99.90;;;;;;5136989;27;20487;-79
2022/01/27 06:02:08;;;;;;;1.08;1.05;;;5.10;99.90;;;;;;5136911;27;20035;-78
2022/01/27 06:04:34;;;;;;;0.95;0.95;;;5.20;99.90;;;;;;5136961;27;20467;-79
2022/01/27 06:06:59;;;;;;;0.75;0.75;;;5.20;99.90;;;;;;5137165;27;20092;-79
2022/01/27 06:09:25;;;;;;;2.72;2.50;;;5.20;99.90;;;;;;5137221;27;20039;-79
2022/01/27 06:11:51;;;;;;;2.40;1.58;;;5.20;99.90;;;;;;5137102;27;20570;-78
2022/01/27 06:14:17;;;;;;;1.63;1.52;;;5.20;99.90;;;;;;5118713;27;20498;-78
2022/01/27 06:16:45;;;;;;;0.77;0.77;;;5.20;99.90;;;;;;5136941;27;20436;-79
2022/01/27 06:19:10;;;;;;;1.00;0.98;;;5.20;99.90;;;;;;5118655;27;20086;-78
2022/01/27 06:21:36;;;;;;;4.60;1.75;;;5.20;99.90;;;;;;5137513;27;20035;-78
2022/01/27 06:24:03;;;;;;;1.25;1.23;;;5.20;99.90;;;;;;5118732;27;20463;-79
2022/01/27 06:26:31;;;;;;;0.80;0.80;;;5.20;99.90;;;;;;5102685;27;20428;-78
2022/01/27 06:28:57;;;;;;;1.55;1.45;;;5.00;99.90;;;;;;5136647;27;20126;-78
2022/01/27 06:31:23;;;;;;;1.85;1.75;;;5.20;99.90;;;;;;5136376;27;20039;-79
2022/01/27 06:33:49;;;;;;;0.75;0.75;;;5.20;99.90;;;;;;5136542;27;20521;-78
2022/01/27 06:36:15;;;;;;;2.58;1.58;;;5.20;99.90;;;;;;5136906;27;20054;-77
2022/01/27 06:38:41;;;;;;;0.90;0.63;;;5.20;99.90;;;;;;5118260;27;20418;-80
2022/01/27 06:41:06;;;;;;;2.55;2.35;;;5.20;99.90;;;;;;5136372;27;20051;-78
2022/01/27 06:43:32;;;;;;;12.90;3.50;;;5.20;99.90;;;;;;5136194;27;20534;-76
2022/01/27 06:45:58;;;;;;;0.68;0.68;;;5.20;99.90;;;;;;5136303;27;20112;-78
2022/01/27 06:48:23;;;;;;;0.60;0.60;;;5.20;99.90;;;;;;5135803;27;20050;-78
2022/01/27 06:50:53;;;;;;;0.70;0.70;;;5.20;99.90;;;;;;5135992;27;20058;-80
2022/01/27 06:53:20;;;;;;;0.70;0.70;;;5.20;99.90;;;;;;5118043;27;20043;-80
2022/01/27 06:55:45;;;;;;;0.63;0.63;;;5.20;99.90;;;;;;5101420;27;20482;-79
2022/01/27 06:58:11;;;;;;;0.50;0.50;;;5.20;99.90;;;;;;5136357;27;20043;-80
2022/01/27 07:00:36;;;;;;;0.75;0.75;;;5.30;99.90;;;;;;5101073;27;20394;-78
2022/01/27 07:03:02;;;;;;;0.60;0.60;;;5.30;99.90;;;;;;5117572;27;20384;-79
2022/01/27 07:05:31;;;;;;;0.85;0.85;;;5.30;99.90;;;;;;5135771;27;20382;-81
2022/01/27 07:07:56;;;;;;;0.50;0.50;;;5.30;99.90;;;;;;5117823;27;20043;-83
2022/01/27 07:10:22;;;;;;;0.70;0.70;;;5.30;99.90;;;;;;5135757;27;20506;-79
2022/01/27 07:12:48;;;;;;;1.45;1.38;;;5.30;99.90;;;;;;5135838;27;20043;-79
2022/01/27 07:15:13;;;;;;;0.60;0.60;;;5.30;99.90;;;;;;5135843;27;20039;-79
2022/01/27 07:17:39;;;;;;;0.60;0.60;;;5.30;99.90;;;;;;5100522;27;20039;-80
2022/01/27 07:20:06;;;;;;;1.55;1.45;;;5.30;99.90;;;;;;5117442;27;20045;-79
2022/01/27 07:22:33;;;;;;;22.90;4.38;;;5.30;99.90;;;;;;5135326;27;20039;-79
2022/01/27 07:24:59;;;;;;;1.00;0.93;;;5.40;99.90;;;;;;5135662;27;20049;-79
2022/01/27 07:27:24;;;;;;;1.33;1.23;;;5.40;99.90;;;;;;5135374;27;20413;-81
2022/01/27 07:29:50;;;;;;;0.70;0.70;;;5.40;99.90;;;;;;5134944;27;20047;-77
2022/01/27 07:32:15;;;;;;;0.77;0.77;;;5.40;99.90;;;;;;5116888;27;20042;-75
2022/01/27 07:34:42;;;;;;;1.35;1.25;;;5.70;99.90;;;;;;5135157;27;20531;-78
2022/01/27 07:37:07;;;;;;;0.60;0.60;;;5.40;99.90;;;;;;5134772;27;20083;-80
2022/01/27 07:39:33;;;;;;;1.35;1.25;;;5.50;99.90;;;;;;5135115;27;20517;-79
2022/01/27 07:42:00;;;;;;;0.75;0.75;;;5.50;99.90;;;;;;5134978;27;20479;-78
2022/01/27 07:44:26;;;;;;;;;;;5.50;99.90;;;;;;5116499;27;20035;-78
2022/01/27 07:46:52;;;;;;;3.85;2.15;;;5.50;99.90;;;;;;5134836;27;19927;-77
2022/01/27 07:49:17;;;;;;;0.70;0.70;;;5.90;99.90;;;;;;5134802;27;20138;-79
2022/01/27 07:51:43;;;;;;;0.50;0.50;;;5.60;99.90;;;;;;5117050;27;20409;-78
2022/01/27 07:54:09;;;;;;;0.73;0.70;;;5.60;99.90;;;;;;5116923;27;20085;-78
2022/01/27 07:56:35;;;;;;;0.80;0.80;;;5.60;99.90;;;;;;5134784;27;20047;-79
2022/01/27 07:59:00;;;;;;;0.50;0.50;;;5.60;99.90;;;;;;5135031;27;20284;-79
2022/01/27 08:01:26;;;;;;;0.60;0.60;;;5.60;99.90;;;;;;5134898;27;20075;-79
2022/01/27 08:03:52;;;;;;;0.60;0.60;;;5.60;99.90;;;;;;5100331;27;20039;-78
2022/01/27 08:06:18;;;;;;;0.60;0.60;;;5.60;99.90;;;;;;5134915;27;20051;-78
2022/01/27 08:08:43;;;;;;;0.70;0.70;;;5.70;99.90;;;;;;5134797;28;20126;-77
2022/01/27 08:11:09;;;;;;;0.50;0.50;;;5.70;99.90;;;;;;5134787;28;20467;-79
2022/01/27 08:13:36;;;;;;;0.68;0.68;;;5.70;99.90;;;;;;5134855;28;20118;-77
2022/01/27 08:16:02;;;;;;;0.60;0.60;;;5.70;99.90;;;;;;5127125;28;20048;-75
2022/01/27 08:18:28;;;;;;;1.02;0.65;;;5.70;99.90;;;;;;5112279;28;20507;-76
2022/01/27 08:20:53;;;;;;;1.55;1.45;;;5.80;99.90;;;;;;5113928;28;20479;-76
2022/01/27 08:23:22;;;;;;;0.70;0.70;;;5.80;99.90;;;;;;5113678;28;20093;-77
2022/01/27 08:25:52;;;;;;;0.73;0.60;;;5.80;99.90;;;;;;5095463;28;20121;-77
2022/01/27 08:28:28;;;;;;;0.60;0.60;;;5.80;99.90;;;;;;5113882;28;20051;-77
2022/01/27 08:30:56;;;;;;;0.50;0.50;;;5.90;99.90;;;;;;5113592;28;20047;-77
2022/01/27 08:33:23;;;;;;;0.85;0.85;;;5.90;99.90;;;;;;5113825;28;20050;-76
2022/01/27 08:35:48;;;;;;;1.10;0.70;;;6.00;99.90;;;;;;5113838;28;20056;-77
2022/01/27 08:38:14;;;;;;;0.50;0.50;;;5.90;99.90;;;;;;5113533;28;20517;-74
2022/01/27 08:40:40;;;;;;;0.50;0.50;;;6.00;99.90;;;;;;5095638;28;20043;-75
2022/01/27 08:43:08;;;;;;;2.97;2.78;;;6.00;99.90;;;;;;5113367;28;20062;-75
2022/01/27 08:45:34;;;;;;;0.50;0.50;;;6.30;99.90;;;;;;5113190;28;20079;-75
2022/01/27 08:48:00;;;;;;;1.27;1.17;;;6.10;99.90;;;;;;5113815;28;20039;-76
2022/01/27 08:50:27;;;;;;;0.73;0.73;;;6.10;99.90;;;;;;5114028;28;20051;-77
2022/01/27 08:52:53;;;;;;;0.75;0.75;;;6.10;99.90;;;;;;5113557;28;20058;-76
2022/01/27 08:55:21;;;;;;;0.98;0.98;;;6.10;99.90;;;;;;5114627;28;20051;-76
2022/01/27 08:57:47;;;;;;;0.50;0.50;;;6.10;99.90;;;;;;5117345;28;20054;-77
2022/01/27 09:00:14;;;;;;;0.70;0.70;;;6.10;99.90;;;;;;5117129;28;20047;-76
2022/01/27 09:02:39;;;;;;;0.50;0.50;;;6.10;99.90;;;;;;5099356;28;20047;-76
2022/01/27 09:05:05;;;;;;;0.90;0.70;;;6.20;99.90;;;;;;5117382;28;20054;-74
2022/01/27 09:07:31;;;;;;;1.60;1.42;;;6.20;99.90;;;;;;5117301;28;20043;-75
2022/01/27 09:09:57;;;;;;;1.67;1.58;;;6.20;99.90;;;;;;5117467;28;20395;-76
2022/01/27 09:12:23;;;;;;;11.85;8.70;;;6.20;99.90;;;;;;5116552;28;20051;-76
2022/01/27 09:14:48;;;;;;;0.55;0.55;;;6.30;99.90;;;;;;5117064;28;20122;-76
2022/01/27 09:17:15;;;;;;;0.60;0.60;;;6.30;99.90;;;;;;5117082;28;20515;-76
2022/01/27 09:19:43;;;;;;;0.75;0.75;;;6.10;99.90;;;;;;5117055;28;20047;-76
2022/01/27 09:22:14;;;;;;;0.70;0.70;;;6.40;99.90;;;;;;5117114;28;20044;-75
2022/01/27 09:24:52;;;;;;;0.68;0.68;;;6.40;99.90;;;;;;5117094;28;20130;-75
2022/01/27 09:27:18;;;;;;;2.92;2.25;;;6.50;99.90;;;;;;5116407;28;20078;-78
2022/01/27 09:29:47;;;;;;;2.30;0.70;;;6.50;99.90;;;;;;5098956;28;20043;-78
2022/01/27 09:32:14;;;;;;;0.70;0.70;;;6.60;99.90;;;;;;5116750;28;20083;-78
2022/01/27 09:34:40;;;;;;;1.58;1.48;;;6.60;99.90;;;;;;5116726;28;20051;-78
2022/01/27 09:37:06;;;;;;;1.13;1.02;;;6.60;99.90;;;;;;5098826;28;20054;-79
2022/01/27 09:39:33;;;;;;;0.97;0.97;;;6.80;99.90;;;;;;5116722;28;20046;-75
2022/01/27 09:41:59;;;;;;;2.53;1.58;;;6.80;99.90;;;;;;5116335;28;20062;-78
2022/01/27 09:44:29;;;;;;;4.20;3.50;;;6.80;99.90;;;;;;5116542;28;20065;-76
2022/01/27 09:46:58;;;;;;;0.73;0.63;;;6.80;99.90;;;;;;5116474;28;20055;-77
2022/01/27 09:49:33;;;;;;;0.50;0.50;;;6.90;99.90;;;;;;5116349;28;20542;-78
2022/01/27 09:51:59;;;;;;;0.60;0.60;;;6.90;99.90;;;;;;5116226;28;20094;-77
2022/01/27 09:54:25;;;;;;;0.50;0.50;;;7.00;99.90;;;;;;5116129;28;20078;-76
2022/01/27 09:56:53;;;;;;;0.50;0.50;;;7.00;99.90;;;;;;5116252;28;20420;-78
2022/01/27 09:59:20;;;;;;;0.50;0.50;;;7.10;99.90;;;;;;5116154;28;20090;-79
2022/01/27 10:02:02;;;;;;;0.60;0.55;;;7.20;99.90;;;;;;5115092;28;20039;-76
2022/01/27 10:04:47;;;;;;;0.50;0.50;;;7.20;99.90;;;;;;5116179;28;20032;-80
2022/01/27 10:07:15;;;;;;;0.50;0.50;;;7.40;99.90;;;;;;5115291;28;20132;-76
2022/01/27 10:09:54;;;;;;;0.50;0.50;;;7.40;99.90;;;;;;5116034;28;20070;-76
2022/01/27 10:12:29;;;;;;;7.00;2.95;;;7.40;99.90;;;;;;5116148;28;20097;-77
2022/01/27 10:15:00;;;;;;;1.48;0.60;;;7.40;99.90;;;;;;5115961;28;20372;-78
2022/01/27 10:17:26;;;;;;;0.90;0.90;;;7.50;99.90;;;;;;5115593;28;20036;-75
2022/01/27 10:19:55;;;;;;;2.10;1.55;;;7.50;99.90;;;;;;5115896;28;20494;-77
2022/01/27 10:22:21;;;;;;;0.52;0.52;;;7.50;99.90;;;;;;5115667;28;20043;-77
2022/01/27 10:25:03;;;;;;;0.50;0.50;;;7.50;99.90;;;;;;5115525;28;20046;-75
2022/01/27 10:33:02;;;;;;;1.13;1.13;;;7.60;99.90;;;;;;5114586;28;20051;-76
2022/01/27 10:35:28;;;;;;;;;;;7.60;99.90;;;;;;5116251;28;20044;-77
2022/01/27 10:38:00;;;;;;;0.80;0.80;;;7.70;99.90;;;;;;5115119;28;20385;-78
2022/01/27 10:40:37;;;;;;;0.40;0.40;;;7.70;99.90;;;;;;5115071;28;20483;-76
2022/01/27 10:43:14;;;;;;;0.73;0.73;;;7.70;99.90;;;;;;5115216;28;20495;-78
2022/01/27 10:46:14;;;;;;;0.60;0.60;;;7.70;99.90;;;;;;5115518;28;20044;-79
2022/01/27 10:48:44;;;;;;;0.50;0.50;;;7.70;99.90;;;;;;5115269;28;20092;-77
2022/01/27 10:51:19;;;;;;;0.50;0.50;;;7.70;99.90;;;;;;5115304;28;20054;-76
2022/01/27 10:54:35;;;;;;;0.50;0.50;;;7.80;99.90;;;;;;5114968;28;20117;-75
2022/01/27 10:56:44;;;;;;;0.55;0.55;;;7.80;99.90;;;;;;5112711;28;20125;-76
2022/01/27 10:59:13;;;;;;;2.50;2.40;;;7.80;99.90;;;;;;5114654;28;20080;-78
2022/01/27 11:01:39;;;;;;;0.55;0.55;;;7.80;99.90;;;;;;5115160;28;20047;-75
2022/01/27 11:04:12;;;;;;;10.88;3.13;;;7.80;99.90;;;;;;5096772;28;20082;-78
2022/01/27 11:06:59;;;;;;;0.60;0.60;;;7.80;99.90;;;;;;5114875;28;20044;-78
2022/01/27 11:09:27;;;;;;;0.47;0.47;;;7.80;99.90;;;;;;5114716;28;20505;-80
2022/01/27 11:11:55;;;;;;;0.65;0.65;;;7.80;99.90;;;;;;5114634;28;20040;-79
2022/01/27 11:14:26;;;;;;;0.50;0.50;;;7.80;99.90;;;;;;5115771;28;20084;-76
2022/01/27 11:16:57;;;;;;;0.50;0.50;;;7.80;99.90;;;;;;5095724;28;20686;-78
2022/01/27 11:22:05;;;;;;;0.95;0.75;;;7.80;99.90;;;;;;5114340;28;20044;-78
2022/01/27 11:27:37;;;;;;;0.75;0.63;;;7.80;99.90;;;;;;5107152;28;20051;-77
2022/01/27 11:30:12;;;;;;;;;;;7.80;99.90;;;;;;5114692;28;20035;-76
2022/01/27 11:33:14;;;;;;;0.40;0.40;;;7.80;99.90;;;;;;5114314;28;20355;-78
2022/01/27 11:35:40;;;;;;;0.50;0.50;;;7.80;99.90;;;;;;5114450;28;20130;-77
2022/01/27 11:38:08;;;;;;;1.05;0.95;;;7.80;99.90;;;;;;5113953;28;20098;-77
2022/01/27 11:40:46;;;;;;;0.50;0.50;;;7.90;99.90;;;;;;5114586;28;20031;-78
2022/01/27 11:43:18;;;;;;;0.50;0.50;;;7.90;99.90;;;;;;5114174;28;20043;-77
2022/01/27 11:45:49;;;;;;;0.50;0.50;;;7.90;99.90;;;;;;5114061;28;20085;-79
2022/01/27 11:48:21;;;;;;;18.45;4.30;;;7.90;99.90;;;;;;5095977;28;20046;-78
2022/01/27 11:51:09;;;;;;;0.60;0.60;;;8.00;99.90;;;;;;5113951;28;20040;-76
2022/01/27 11:53:36;;;;;;;0.50;0.50;;;8.00;99.90;;;;;;5114231;28;20094;-74
2022/01/27 11:56:05;;;;;;;0.50;0.50;;;8.10;99.90;;;;;;5114023;28;20046;-76
2022/01/27 11:58:43;;;;;;;0.50;0.50;;;8.10;99.90;;;;;;5114145;28;20395;-77
2022/01/27 12:01:13;;;;;;;0.93;0.88;;;8.20;99.90;;;;;;5112897;28;20070;-78
2022/01/27 12:03:40;;;;;;;0.63;0.63;;;8.20;99.90;;;;;;5113883;28;20118;-77
2022/01/27 12:06:22;;;;;;;0.40;0.40;;;8.70;99.90;;;;;;5112323;28;20088;-78
2022/01/27 12:08:48;;;;;;;0.70;0.70;;;8.40;99.90;;;;;;5114029;28;20098;-79
2022/01/27 12:11:43;;;;;;;1.55;0.77;;;8.40;99.90;;;;;;5114038;28;20047;-81
2022/01/27 12:14:09;;;;;;;0.50;0.50;;;8.40;99.90;;;;;;5114089;28;20044;-77
2022/01/27 12:19:06;;;;;;;0.40;0.40;;;8.50;99.90;;;;;;5113860;28;20070;-81
2022/01/27 12:21:40;;;;;;;5.68;1.05;;;8.50;99.90;;;;;;5113463;28;20439;-80
2022/01/27 12:24:12;;;;;;;0.50;0.50;;;8.50;99.90;;;;;;5113872;28;20048;-77
2022/01/27 12:26:51;;;;;;;0.50;0.50;;;8.50;99.90;;;;;;5113722;28;20108;-79
2022/01/27 12:29:32;;;;;;;0.50;0.50;;;8.60;99.90;;;;;;5112863;28;20118;-79
2022/01/27 12:32:17;;;;;;;0.50;0.50;;;8.70;99.90;;;;;;5136847;27;20043;-78
2022/01/27 12:34:48;;;;;;;0.40;0.40;;;8.70;99.90;;;;;;5119492;27;20081;-76
2022/01/27 12:37:14;;;;;;;0.50;0.50;;;8.70;99.90;;;;;;5138312;27;20043;-76
2022/01/27 12:39:49;;;;;;;0.95;0.50;;;8.80;99.90;;;;;;5137878;27;20050;-76
2022/01/27 12:42:17;;;;;;;0.40;0.40;;;8.90;99.90;;;;;;5138078;27;20039;-78
2022/01/27 12:44:59;;;;;;;0.60;0.60;;;8.90;99.90;;;;;;5138004;27;20035;-75
2022/01/27 12:47:30;;;;;;;0.65;0.65;;;8.90;99.90;;;;;;5137784;27;20043;-77
2022/01/27 12:50:21;;;;;;;0.70;0.70;;;8.90;99.90;;;;;;5137586;27;20566;-77
2022/01/27 12:52:51;;;;;;;0.40;0.40;;;9.00;99.90;;;;;;5109875;28;20051;-75
2022/01/27 12:55:19;;;;;;;0.60;0.60;;;9.00;99.90;;;;;;5119401;27;20039;-75
2022/01/27 12:57:57;;;;;;;0.40;0.40;;;9.00;99.90;;;;;;5136870;27;20047;-78
2022/01/27 13:00:23;;;;;;;0.55;0.55;;;9.00;99.90;;;;;;5119874;27;20068;-78
2022/01/27 13:02:49;;;;;;;0.50;0.50;;;9.10;99.90;;;;;;5137103;27;20081;-78
2022/01/27 13:05:15;;;;;;;0.50;0.50;;;9.10;99.90;;;;;;5118206;27;20079;-79
2022/01/27 13:07:46;;;;;;;0.40;0.40;;;9.10;99.90;;;;;;5137556;27;20050;-78
2022/01/27 13:10:15;;;;;;;0.40;0.40;;;9.10;99.90;;;;;;5137187;27;20039;-77
2022/01/27 13:12:48;;;;;;;1.85;0.82;;;9.10;99.90;;;;;;5137252;27;20156;-78
2022/01/27 13:15:18;;;;;;;0.40;0.40;;;9.10;99.90;;;;;;5118248;27;20486;-80
2022/01/27 13:18:09;;;;;;;0.40;0.40;;;9.10;99.90;;;;;;5136906;27;20074;-78
2022/01/27 13:20:42;;;;;;;0.40;0.40;;;9.10;99.90;;;;;;5136697;27;20486;-78
2022/01/27 13:23:32;;;;;;;0.50;0.50;;;9.10;99.90;;;;;;5119742;27;20078;-79
2022/01/27 13:26:03;;;;;;;0.50;0.50;;;9.10;99.90;;;;;;5119019;27;20119;-80
2022/01/27 13:28:33;;;;;;;0.50;0.50;;;9.10;99.90;;;;;;5138113;27;20104;-76
2022/01/27 13:31:18;;;;;;;0.50;0.50;;;9.10;99.90;;;;;;5103244;27;20043;-79
2022/01/27 13:33:46;;;;;;;0.57;0.57;;;9.10;99.90;;;;;;5118510;27;20039;-76
2022/01/27 13:36:25;;;;;;;0.50;0.50;;;9.10;99.90;;;;;;5136881;27;20050;-78
2022/01/27 13:41:40;;;;;;;0.50;0.50;;;9.10;99.90;;;;;;5135914;27;20055;-77
2022/01/27 13:44:11;;;;;;;0.63;0.63;;;9.10;99.90;;;;;;5135769;27;20047;-78
2022/01/27 13:46:44;;;;;;;0.40;0.40;;;9.10;99.90;;;;;;5136065;27;20043;-78
2022/01/27 13:49:19;;;;;;;0.50;0.50;;;9.00;99.90;;;;;;5136628;27;20058;-77
2022/01/27 13:52:15;;;;;;;0.50;0.50;;;9.10;99.90;;;;;;5136724;27;20082;-78
2022/01/27 13:54:46;;;;;;;2.72;1.58;;;9.00;99.90;;;;;;5101790;27;20563;-79
2022/01/27 13:57:14;;;;;;;0.50;0.50;;;9.00;99.90;;;;;;5136567;27;20055;-76
2022/01/27 13:59:57;;;;;;;0.40;0.40;;;9.10;99.90;;;;;;5117926;27;20035;-78